This is the latest recevied weather packets stored in our database for station/object KC3DGM. If no packets are shown the sender has not sent any weather packets the latest 10 day(s).
| Time | Temp. | Humidity | Pressure | Rain* | Wind** | Luminosity | Snow |
|---|---|---|---|---|---|---|---|
| 1777948896 | 17.22° C | 71% | 977.8 hPa | 0 mm | - | 0 W/m² | - |
| 1777948594 | 17.78° C | 68% | 977.8 hPa | 0 mm | - | 0 W/m² | - |
| 1777948291 | 17.22° C | 68% | 977.7 hPa | 0 mm | - | 0 W/m² | - |
| 1777947988 | 17.78° C | 70% | 977.8 hPa | 0 mm | - | 0 W/m² | - |
| 1777947685 | 17.78° C | 67% | 977.6 hPa | 0 mm | - | 0 W/m² | - |
| 1777947382 | 17.22° C | 69% | 977.7 hPa | 0 mm | - | 0 W/m² | - |
| 1777947079 | 17.22° C | 71% | 977.8 hPa | 0 mm | - | 0 W/m² | - |
| 1777946774 | 16.67° C | 71% | 977.5 hPa | 0 mm | - | 0 W/m² | - |
| 1777946471 | 16.11° C | 72% | 977.6 hPa | 0 mm | - | 0 W/m² | - |
| 1777946168 | 16.11° C | 73% | 977.6 hPa | 0 mm | - | 0 W/m² | - |
| 1777945865 | 16.67° C | 72% | 977.1 hPa | 0 mm | - | 0 W/m² | - |
| 1777945561 | 16.67° C | 70% | 976.9 hPa | 0 mm | - | 0 W/m² | - |
| 1777945258 | 15.56° C | 75% | 977.4 hPa | 0 mm | - | 0 W/m² | - |
| 1777944955 | 15° C | 75% | 977.1 hPa | 0 mm | - | 0 W/m² | - |
| 1777944653 | 15° C | 79% | 977 hPa | 0 mm | - | 0 W/m² | - |
| 1777944351 | 15.56° C | 78% | 977 hPa | 0 mm | - | 0 W/m² | - |
| 1777944048 | 15.56° C | 77% | 977 hPa | 0 mm | - | 0 W/m² | - |
| 1777943743 | 16.11° C | 75% | 976.6 hPa | 0 mm | - | 0 W/m² | - |
| 1777943441 | 16.67° C | 72% | 976.7 hPa | 0 mm | - | 0 W/m² | - |
| 1777943136 | 17.22° C | 70% | 976.8 hPa | 0 mm | - | 0 W/m² | - |
| 1777942833 | 17.22° C | 71% | 976.7 hPa | 0 mm | - | 0 W/m² | - |
| 1777942529 | 17.78° C | 69% | 976.9 hPa | 0 mm | - | 0 W/m² | - |
| 1777942227 | 17.22° C | 69% | 976.8 hPa | 0 mm | - | 0 W/m² | - |
| 1777941923 | 17.78° C | 68% | 976.8 hPa | 0 mm | - | 0 W/m² | - |
| 1777941620 | 17.78° C | 67% | 976.6 hPa | 0 mm | - | 0 W/m² | - |
* Rain latest hour (hover to see other rain measurements)
** Current wind speed in m/s (hover to see current wind gust speed)